• Join FlightAware (Why Join?)
  • Login
  • US Flag 
02:11AM EST


 

Airport Tracker/Info


-or-


 

Live Flight TrackerFlight Track Log ✈ CTL61 ✈ 18-Apr-2013 ✈ KBLF - KCRW

Flight Track Log - Related Links

Times and Time Zones

All times are in EDT time to prevent confusion due to time zone crossing. See the CTL61 flight status page for this flight to view local times or setup timezone preferences in your user account.

Time Position Orientation Groundspeed Altitude Reporting Facility
EDT Latitude Longitude Course Direction KTS MPH feet Rate Location/Type
10:52PM 37.4006 -81.2758 345° North 160 184 6,000  Level Indianapolis Center
10:53PM 37.4522 -81.2933 345° North 194 223 6,000  Level Indianapolis Center
10:54PM 37.5056 -81.3092 347° North 201 231 6,100  Climbing Indianapolis Center
10:55PM 37.5600 -81.3275 345° North 206 237 6,100 -60 Level Indianapolis Center
10:56PM 37.5144 -81.2824 343° North  Level FlightAware Approximate
10:56PM 37.6239 -81.3478 346° North 202 232 6,000  Level Indianapolis Center
10:57PM 37.6789 -81.3656 346° North 206 237 6,200 60 Climbing Indianapolis Center
10:58PM 37.7308 -81.3819 346° North 200 230 6,200  Level Indianapolis Center
10:59PM 37.7842 -81.4006 345° North 202 232 6,200 -120 Level Indianapolis Center
11:00PM 37.8464 -81.4236 344° North 207 238 6,000 -120 Descending Indianapolis Center
11:01PM 37.9019 -81.4422 345° North 208 239 6,000  Level Indianapolis Center
11:02PM 37.9578 -81.4597 346° North 207 238 6,100 -60 Climbing Indianapolis Center
11:03PM 38.0142 -81.4750 348° North 205 236 5,900 -240 Descending Indianapolis Center
11:04PM 38.0725 -81.4914 348° North 213 245 5,700 -240 Descending Indianapolis Center
11:05PM 38.1303 -81.5075 348° North 212 244 5,500 -360 Descending Indianapolis Center
11:06PM 38.1867 -81.5253 346° North 210 242 5,000 -540 Descending Indianapolis Center
11:07PM 38.2433 -81.5511 340° North 213 245 4,500 -660 Descending Indianapolis Center
11:08PM 38.3000 -81.5664 348° North 210 242 3,700 -1,140 Descending Indianapolis Center
11:09PM 38.3619 -81.5542 North 207 238 2,200 -1,080 Descending Indianapolis Center
11:10PM 38.3936 -81.5575 355° North 168 193 1,600 -480 Descending Indianapolis Center
11:11PM 38.3847 -81.5861 248° West 136 157 1,300 -300 Descending Indianapolis Center